sensor_id;sensor_type;location;lat;lon;timestamp;P1;durP1;ratioP1;P2;durP2;ratioP2
70388;SDS011;58659;49.050;8.530;2022-11-20T00:01:09;6.07;;;2.87;;
70388;SDS011;58659;49.050;8.530;2022-11-20T00:03:36;7.47;;;2.30;;
70388;SDS011;58659;49.050;8.530;2022-11-20T00:06:02;5.07;;;2.13;;
70388;SDS011;58659;49.050;8.530;2022-11-20T00:08:29;3.90;;;1.87;;
70388;SDS011;58659;49.050;8.530;2022-11-20T00:10:54;6.80;;;2.93;;
70388;SDS011;58659;49.050;8.530;2022-11-20T00:13:19;7.23;;;2.37;;
70388;SDS011;58659;49.050;8.530;2022-11-20T00:15:45;3.43;;;1.90;;
70388;SDS011;58659;49.050;8.530;2022-11-20T00:18:10;3.70;;;2.33;;
70388;SDS011;58659;49.050;8.530;2022-11-20T00:20:35;6.37;;;2.43;;
70388;SDS011;58659;49.050;8.530;2022-11-20T00:23:00;4.30;;;2.07;;
70388;SDS011;58659;49.050;8.530;2022-11-20T00:25:26;5.77;;;3.03;;
70388;SDS011;58659;49.050;8.530;2022-11-20T00:27:51;7.40;;;2.07;;
70388;SDS011;58659;49.050;8.530;2022-11-20T00:30:16;3.73;;;2.17;;
70388;SDS011;58659;49.050;8.530;2022-11-20T00:32:42;8.17;;;2.37;;
70388;SDS011;58659;49.050;8.530;2022-11-20T00:35:07;4.63;;;2.03;;
70388;SDS011;58659;49.050;8.530;2022-11-20T00:37:32;5.97;;;2.10;;
70388;SDS011;58659;49.050;8.530;2022-11-20T00:39:58;5.00;;;2.37;;
70388;SDS011;58659;49.050;8.530;2022-11-20T00:42:23;9.03;;;3.07;;
70388;SDS011;58659;49.050;8.530;2022-11-20T00:44:48;6.80;;;2.30;;
70388;SDS011;58659;49.050;8.530;2022-11-20T00:47:13;6.83;;;3.03;;
70388;SDS011;58659;49.050;8.530;2022-11-20T00:49:39;3.10;;;1.80;;
70388;SDS011;58659;49.050;8.530;2022-11-20T00:52:04;7.93;;;2.93;;
70388;SDS011;58659;49.050;8.530;2022-11-20T00:54:29;6.07;;;2.20;;
70388;SDS011;58659;49.050;8.530;2022-11-20T00:56:55;5.27;;;2.40;;
70388;SDS011;58659;49.050;8.530;2022-11-20T00:59:20;6.03;;;2.37;;
70388;SDS011;58659;49.050;8.530;2022-11-20T01:01:45;7.13;;;2.20;;
70388;SDS011;58659;49.050;8.530;2022-11-20T01:04:11;4.43;;;1.80;;
70388;SDS011;58659;49.050;8.530;2022-11-20T01:06:37;4.30;;;2.20;;
70388;SDS011;58659;49.050;8.530;2022-11-20T01:09:09;7.53;;;1.80;;
70388;SDS011;58659;49.050;8.530;2022-11-20T01:11:37;8.40;;;1.97;;
70388;SDS011;58659;49.050;8.530;2022-11-20T01:14:05;5.43;;;1.87;;
70388;SDS011;58659;49.050;8.530;2022-11-20T01:16:36;5.03;;;2.63;;
70388;SDS011;58659;49.050;8.530;2022-11-20T01:19:03;5.57;;;2.13;;
70388;SDS011;58659;49.050;8.530;2022-11-20T01:21:34;5.03;;;2.03;;
70388;SDS011;58659;49.050;8.530;2022-11-20T01:24:02;5.17;;;2.13;;
70388;SDS011;58659;49.050;8.530;2022-11-20T01:26:29;5.67;;;2.30;;
70388;SDS011;58659;49.050;8.530;2022-11-20T01:28:57;3.50;;;2.47;;
70388;SDS011;58659;49.050;8.530;2022-11-20T01:31:41;6.73;;;1.90;;
70388;SDS011;58659;49.050;8.530;2022-11-20T01:34:09;4.40;;;2.00;;
70388;SDS011;58659;49.050;8.530;2022-11-20T01:36:37;5.10;;;1.97;;
70388;SDS011;58659;49.050;8.530;2022-11-20T01:39:04;4.67;;;1.90;;
70388;SDS011;58659;49.050;8.530;2022-11-20T01:41:31;5.87;;;2.03;;
70388;SDS011;58659;49.050;8.530;2022-11-20T01:44:17;4.07;;;1.60;;
70388;SDS011;58659;49.050;8.530;2022-11-20T01:46:50;4.20;;;1.83;;
70388;SDS011;58659;49.050;8.530;2022-11-20T01:49:33;8.17;;;2.37;;
70388;SDS011;58659;49.050;8.530;2022-11-20T01:52:07;7.60;;;2.47;;
70388;SDS011;58659;49.050;8.530;2022-11-20T01:54:40;5.57;;;2.10;;
70388;SDS011;58659;49.050;8.530;2022-11-20T01:57:10;6.40;;;1.90;;
70388;SDS011;58659;49.050;8.530;2022-11-20T01:59:41;4.07;;;1.60;;
70388;SDS011;58659;49.050;8.530;2022-11-20T02:02:39;6.87;;;2.03;;
70388;SDS011;58659;49.050;8.530;2022-11-20T02:05:10;7.50;;;2.77;;
70388;SDS011;58659;49.050;8.530;2022-11-20T02:07:42;3.73;;;2.20;;
70388;SDS011;58659;49.050;8.530;2022-11-20T02:10:08;3.60;;;1.93;;
70388;SDS011;58659;49.050;8.530;2022-11-20T02:12:33;4.57;;;1.97;;
70388;SDS011;58659;49.050;8.530;2022-11-20T02:15:17;3.10;;;1.60;;
70388;SDS011;58659;49.050;8.530;2022-11-20T02:17:42;5.30;;;2.43;;
70388;SDS011;58659;49.050;8.530;2022-11-20T02:20:08;3.13;;;1.97;;
70388;SDS011;58659;49.050;8.530;2022-11-20T02:22:36;5.23;;;2.20;;
70388;SDS011;58659;49.050;8.530;2022-11-20T02:25:05;4.43;;;1.43;;
70388;SDS011;58659;49.050;8.530;2022-11-20T02:27:32;4.80;;;2.10;;
70388;SDS011;58659;49.050;8.530;2022-11-20T02:29:58;6.63;;;2.63;;
70388;SDS011;58659;49.050;8.530;2022-11-20T02:32:28;3.10;;;1.83;;
70388;SDS011;58659;49.050;8.530;2022-11-20T02:34:57;5.87;;;2.27;;
70388;SDS011;58659;49.050;8.530;2022-11-20T02:37:23;6.97;;;1.90;;
70388;SDS011;58659;49.050;8.530;2022-11-20T02:39:55;3.37;;;1.70;;
70388;SDS011;58659;49.050;8.530;2022-11-20T02:42:21;3.03;;;1.60;;
70388;SDS011;58659;49.050;8.530;2022-11-20T02:44:46;6.57;;;1.60;;
70388;SDS011;58659;49.050;8.530;2022-11-20T02:47:11;3.10;;;1.70;;
70388;SDS011;58659;49.050;8.530;2022-11-20T02:49:36;7.73;;;2.10;;
70388;SDS011;58659;49.050;8.530;2022-11-20T02:52:02;4.00;;;1.63;;
70388;SDS011;58659;49.050;8.530;2022-11-20T02:54:27;10.33;;;2.07;;
70388;SDS011;58659;49.050;8.530;2022-11-20T02:56:52;3.77;;;1.70;;
70388;SDS011;58659;49.050;8.530;2022-11-20T02:59:18;3.00;;;1.57;;
70388;SDS011;58659;49.050;8.530;2022-11-20T03:01:43;3.20;;;1.73;;
70388;SDS011;58659;49.050;8.530;2022-11-20T03:04:08;2.97;;;1.37;;
70388;SDS011;58659;49.050;8.530;2022-11-20T03:06:34;3.93;;;1.30;;
70388;SDS011;58659;49.050;8.530;2022-11-20T03:08:59;4.17;;;1.60;;
70388;SDS011;58659;49.050;8.530;2022-11-20T03:11:25;4.83;;;2.03;;
70388;SDS011;58659;49.050;8.530;2022-11-20T03:13:50;2.67;;;1.37;;
70388;SDS011;58659;49.050;8.530;2022-11-20T03:16:17;4.00;;;1.37;;
70388;SDS011;58659;49.050;8.530;2022-11-20T03:18:44;4.50;;;1.57;;
70388;SDS011;58659;49.050;8.530;2022-11-20T03:21:10;4.70;;;1.83;;
70388;SDS011;58659;49.050;8.530;2022-11-20T03:23:37;4.50;;;1.50;;
70388;SDS011;58659;49.050;8.530;2022-11-20T03:26:10;2.83;;;1.23;;
70388;SDS011;58659;49.050;8.530;2022-11-20T03:28:41;2.53;;;1.00;;
70388;SDS011;58659;49.050;8.530;2022-11-20T03:31:14;4.30;;;2.13;;
70388;SDS011;58659;49.050;8.530;2022-11-20T03:33:41;1.60;;;0.80;;
70388;SDS011;58659;49.050;8.530;2022-11-20T03:36:10;3.97;;;1.70;;
70388;SDS011;58659;49.050;8.530;2022-11-20T03:38:37;1.60;;;1.13;;
70388;SDS011;58659;49.050;8.530;2022-11-20T03:41:04;5.53;;;1.73;;
70388;SDS011;58659;49.050;8.530;2022-11-20T03:43:31;8.73;;;1.50;;
70388;SDS011;58659;49.050;8.530;2022-11-20T03:45:57;7.43;;;1.37;;
70388;SDS011;58659;49.050;8.530;2022-11-20T03:48:23;3.17;;;1.17;;
70388;SDS011;58659;49.050;8.530;2022-11-20T03:50:48;6.60;;;1.67;;
70388;SDS011;58659;49.050;8.530;2022-11-20T03:53:15;4.37;;;2.00;;
70388;SDS011;58659;49.050;8.530;2022-11-20T03:55:40;1.43;;;0.70;;
70388;SDS011;58659;49.050;8.530;2022-11-20T03:58:05;2.13;;;1.37;;
70388;SDS011;58659;49.050;8.530;2022-11-20T04:00:31;4.47;;;1.57;;
70388;SDS011;58659;49.050;8.530;2022-11-20T04:02:59;1.77;;;0.80;;
70388;SDS011;58659;49.050;8.530;2022-11-20T04:05:27;3.13;;;1.43;;
70388;SDS011;58659;49.050;8.530;2022-11-20T04:07:53;6.33;;;1.40;;
70388;SDS011;58659;49.050;8.530;2022-11-20T04:10:18;4.13;;;1.60;;
70388;SDS011;58659;49.050;8.530;2022-11-20T04:12:44;3.33;;;1.43;;
70388;SDS011;58659;49.050;8.530;2022-11-20T04:15:09;3.07;;;1.03;;
70388;SDS011;58659;49.050;8.530;2022-11-20T04:17:34;3.30;;;1.37;;
70388;SDS011;58659;49.050;8.530;2022-11-20T04:20:00;2.13;;;1.23;;
70388;SDS011;58659;49.050;8.530;2022-11-20T04:22:26;5.47;;;1.47;;
70388;SDS011;58659;49.050;8.530;2022-11-20T04:24:51;1.40;;;0.80;;
70388;SDS011;58659;49.050;8.530;2022-11-20T04:27:16;2.00;;;1.00;;
70388;SDS011;58659;49.050;8.530;2022-11-20T04:29:42;0.80;;;0.53;;
70388;SDS011;58659;49.050;8.530;2022-11-20T04:32:07;4.33;;;1.53;;
70388;SDS011;58659;49.050;8.530;2022-11-20T04:34:32;3.53;;;1.13;;
70388;SDS011;58659;49.050;8.530;2022-11-20T04:36:58;1.97;;;1.00;;
70388;SDS011;58659;49.050;8.530;2022-11-20T04:39:23;1.97;;;0.80;;
70388;SDS011;58659;49.050;8.530;2022-11-20T04:41:48;1.73;;;1.20;;
70388;SDS011;58659;49.050;8.530;2022-11-20T04:44:33;2.00;;;1.00;;
70388;SDS011;58659;49.050;8.530;2022-11-20T04:46:59;1.60;;;0.90;;
70388;SDS011;58659;49.050;8.530;2022-11-20T04:49:24;6.50;;;2.17;;
70388;SDS011;58659;49.050;8.530;2022-11-20T04:51:52;3.93;;;1.20;;
70388;SDS011;58659;49.050;8.530;2022-11-20T04:54:18;3.77;;;1.60;;
70388;SDS011;58659;49.050;8.530;2022-11-20T04:56:45;2.60;;;1.73;;
70388;SDS011;58659;49.050;8.530;2022-11-20T04:59:12;1.10;;;0.70;;
70388;SDS011;58659;49.050;8.530;2022-11-20T05:01:37;1.50;;;0.70;;
70388;SDS011;58659;49.050;8.530;2022-11-20T05:04:03;2.07;;;0.93;;
70388;SDS011;58659;49.050;8.530;2022-11-20T05:06:28;1.67;;;0.93;;
70388;SDS011;58659;49.050;8.530;2022-11-20T05:08:53;2.13;;;1.33;;
70388;SDS011;58659;49.050;8.530;2022-11-20T05:11:20;2.23;;;1.00;;
70388;SDS011;58659;49.050;8.530;2022-11-20T05:13:46;0.97;;;0.80;;
70388;SDS011;58659;49.050;8.530;2022-11-20T05:16:12;1.80;;;0.93;;
70388;SDS011;58659;49.050;8.530;2022-11-20T05:18:39;1.57;;;0.97;;
70388;SDS011;58659;49.050;8.530;2022-11-20T05:21:05;1.67;;;1.10;;
70388;SDS011;58659;49.050;8.530;2022-11-20T05:23:31;2.97;;;1.27;;
70388;SDS011;58659;49.050;8.530;2022-11-20T05:25:57;0.73;;;0.73;;
70388;SDS011;58659;49.050;8.530;2022-11-20T05:28:23;1.10;;;0.77;;
70388;SDS011;58659;49.050;8.530;2022-11-20T05:30:50;1.10;;;0.67;;
70388;SDS011;58659;49.050;8.530;2022-11-20T05:33:16;1.27;;;0.90;;
70388;SDS011;58659;49.050;8.530;2022-11-20T05:35:42;2.93;;;0.80;;
70388;SDS011;58659;49.050;8.530;2022-11-20T05:38:07;1.53;;;0.87;;
70388;SDS011;58659;49.050;8.530;2022-11-20T05:40:32;1.50;;;0.70;;
70388;SDS011;58659;49.050;8.530;2022-11-20T05:42:58;1.30;;;0.80;;
70388;SDS011;58659;49.050;8.530;2022-11-20T05:45:24;1.63;;;0.70;;
70388;SDS011;58659;49.050;8.530;2022-11-20T05:47:49;1.63;;;1.00;;
70388;SDS011;58659;49.050;8.530;2022-11-20T05:50:14;2.00;;;0.83;;
70388;SDS011;58659;49.050;8.530;2022-11-20T05:52:40;1.70;;;0.90;;
70388;SDS011;58659;49.050;8.530;2022-11-20T05:55:05;1.17;;;0.70;;
70388;SDS011;58659;49.050;8.530;2022-11-20T05:57:31;1.10;;;0.60;;
70388;SDS011;58659;49.050;8.530;2022-11-20T06:00:00;1.00;;;0.70;;
70388;SDS011;58659;49.050;8.530;2022-11-20T06:02:36;0.93;;;0.70;;
70388;SDS011;58659;49.050;8.530;2022-11-20T06:05:02;1.40;;;0.83;;
70388;SDS011;58659;49.050;8.530;2022-11-20T06:07:27;1.10;;;0.60;;
70388;SDS011;58659;49.050;8.530;2022-11-20T06:09:53;0.80;;;0.60;;
70388;SDS011;58659;49.050;8.530;2022-11-20T06:12:18;1.90;;;0.73;;
70388;SDS011;58659;49.050;8.530;2022-11-20T06:14:43;2.03;;;0.90;;
70388;SDS011;58659;49.050;8.530;2022-11-20T06:17:08;0.93;;;0.70;;
70388;SDS011;58659;49.050;8.530;2022-11-20T06:19:34;1.23;;;0.67;;
70388;SDS011;58659;49.050;8.530;2022-11-20T06:21:59;0.87;;;0.57;;
70388;SDS011;58659;49.050;8.530;2022-11-20T06:24:24;0.40;;;0.30;;
70388;SDS011;58659;49.050;8.530;2022-11-20T06:26:50;1.97;;;1.10;;
70388;SDS011;58659;49.050;8.530;2022-11-20T06:29:15;2.93;;;0.60;;
70388;SDS011;58659;49.050;8.530;2022-11-20T06:31:41;2.97;;;1.30;;
70388;SDS011;58659;49.050;8.530;2022-11-20T06:34:07;1.37;;;0.83;;
70388;SDS011;58659;49.050;8.530;2022-11-20T06:36:33;3.10;;;0.80;;
70388;SDS011;58659;49.050;8.530;2022-11-20T06:38:59;1.00;;;0.50;;
70388;SDS011;58659;49.050;8.530;2022-11-20T06:41:24;1.77;;;0.60;;
70388;SDS011;58659;49.050;8.530;2022-11-20T06:43:50;1.67;;;0.50;;
70388;SDS011;58659;49.050;8.530;2022-11-20T06:46:16;0.40;;;0.30;;
70388;SDS011;58659;49.050;8.530;2022-11-20T06:48:43;1.33;;;0.80;;
70388;SDS011;58659;49.050;8.530;2022-11-20T06:51:09;1.20;;;0.40;;
70388;SDS011;58659;49.050;8.530;2022-11-20T06:53:35;0.57;;;0.50;;
70388;SDS011;58659;49.050;8.530;2022-11-20T06:56:01;1.00;;;0.77;;
70388;SDS011;58659;49.050;8.530;2022-11-20T06:58:28;0.63;;;0.57;;
70388;SDS011;58659;49.050;8.530;2022-11-20T07:00:57;0.73;;;0.50;;
70388;SDS011;58659;49.050;8.530;2022-11-20T07:03:26;2.47;;;0.70;;
70388;SDS011;58659;49.050;8.530;2022-11-20T07:05:54;0.47;;;0.37;;
70388;SDS011;58659;49.050;8.530;2022-11-20T07:08:20;1.80;;;0.50;;
70388;SDS011;58659;49.050;8.530;2022-11-20T07:10:45;0.73;;;0.50;;
70388;SDS011;58659;49.050;8.530;2022-11-20T07:13:10;1.07;;;0.60;;
70388;SDS011;58659;49.050;8.530;2022-11-20T07:15:36;0.33;;;0.27;;
70388;SDS011;58659;49.050;8.530;2022-11-20T07:18:01;0.20;;;0.20;;
70388;SDS011;58659;49.050;8.530;2022-11-20T07:20:27;0.87;;;0.57;;
70388;SDS011;58659;49.050;8.530;2022-11-20T07:22:53;2.07;;;0.87;;
70388;SDS011;58659;49.050;8.530;2022-11-20T07:25:20;2.37;;;0.40;;
70388;SDS011;58659;49.050;8.530;2022-11-20T07:27:45;0.43;;;0.33;;
70388;SDS011;58659;49.050;8.530;2022-11-20T07:30:11;3.67;;;1.20;;
70388;SDS011;58659;49.050;8.530;2022-11-20T07:32:37;0.87;;;0.43;;
70388;SDS011;58659;49.050;8.530;2022-11-20T07:35:02;1.50;;;0.20;;
70388;SDS011;58659;49.050;8.530;2022-11-20T07:37:28;0.93;;;0.50;;
70388;SDS011;58659;49.050;8.530;2022-11-20T07:39:53;0.77;;;0.43;;
70388;SDS011;58659;49.050;8.530;2022-11-20T07:42:18;0.73;;;0.47;;
70388;SDS011;58659;49.050;8.530;2022-11-20T07:44:44;0.40;;;0.40;;
70388;SDS011;58659;49.050;8.530;2022-11-20T07:47:09;1.20;;;0.60;;
70388;SDS011;58659;49.050;8.530;2022-11-20T07:49:34;0.53;;;0.40;;
70388;SDS011;58659;49.050;8.530;2022-11-20T07:52:00;1.47;;;0.67;;
70388;SDS011;58659;49.050;8.530;2022-11-20T07:54:25;3.37;;;0.73;;
70388;SDS011;58659;49.050;8.530;2022-11-20T07:56:50;0.73;;;0.40;;
70388;SDS011;58659;49.050;8.530;2022-11-20T07:59:16;1.23;;;0.40;;
70388;SDS011;58659;49.050;8.530;2022-11-20T08:01:42;2.13;;;0.73;;
70388;SDS011;58659;49.050;8.530;2022-11-20T08:04:07;3.43;;;1.00;;
70388;SDS011;58659;49.050;8.530;2022-11-20T08:06:34;0.87;;;0.63;;
70388;SDS011;58659;49.050;8.530;2022-11-20T08:08:59;0.73;;;0.60;;
70388;SDS011;58659;49.050;8.530;2022-11-20T08:11:25;0.63;;;0.37;;
70388;SDS011;58659;49.050;8.530;2022-11-20T08:14:09;1.90;;;0.80;;
70388;SDS011;58659;49.050;8.530;2022-11-20T08:16:40;0.97;;;0.50;;
70388;SDS011;58659;49.050;8.530;2022-11-20T08:19:07;0.43;;;0.40;;
70388;SDS011;58659;49.050;8.530;2022-11-20T08:21:33;1.37;;;0.60;;
70388;SDS011;58659;49.050;8.530;2022-11-20T08:23:58;1.97;;;0.83;;
70388;SDS011;58659;49.050;8.530;2022-11-20T08:26:24;2.43;;;0.70;;
70388;SDS011;58659;49.050;8.530;2022-11-20T08:28:52;0.97;;;0.77;;
70388;SDS011;58659;49.050;8.530;2022-11-20T08:31:19;0.80;;;0.57;;
70388;SDS011;58659;49.050;8.530;2022-11-20T08:33:44;2.23;;;0.80;;
70388;SDS011;58659;49.050;8.530;2022-11-20T08:36:10;1.27;;;0.40;;
70388;SDS011;58659;49.050;8.530;2022-11-20T08:38:35;2.47;;;0.80;;
70388;SDS011;58659;49.050;8.530;2022-11-20T08:41:01;1.07;;;0.50;;
70388;SDS011;58659;49.050;8.530;2022-11-20T08:43:46;1.10;;;0.43;;
70388;SDS011;58659;49.050;8.530;2022-11-20T08:46:11;1.83;;;0.60;;
70388;SDS011;58659;49.050;8.530;2022-11-20T08:48:37;0.97;;;0.77;;
70388;SDS011;58659;49.050;8.530;2022-11-20T08:51:03;1.00;;;0.73;;
70388;SDS011;58659;49.050;8.530;2022-11-20T08:53:29;1.97;;;0.60;;
70388;SDS011;58659;49.050;8.530;2022-11-20T08:55:54;0.97;;;0.57;;
70388;SDS011;58659;49.050;8.530;2022-11-20T08:58:19;0.93;;;0.60;;
70388;SDS011;58659;49.050;8.530;2022-11-20T09:00:45;0.97;;;0.60;;
70388;SDS011;58659;49.050;8.530;2022-11-20T09:03:10;1.33;;;0.50;;
70388;SDS011;58659;49.050;8.530;2022-11-20T09:05:37;1.30;;;0.70;;
70388;SDS011;58659;49.050;8.530;2022-11-20T09:08:02;1.93;;;0.80;;
70388;SDS011;58659;49.050;8.530;2022-11-20T09:10:28;0.50;;;0.50;;
70388;SDS011;58659;49.050;8.530;2022-11-20T09:12:54;1.87;;;0.73;;
70388;SDS011;58659;49.050;8.530;2022-11-20T09:15:20;0.90;;;0.57;;
70388;SDS011;58659;49.050;8.530;2022-11-20T09:20:21;0.87;;;0.40;;
70388;SDS011;58659;49.050;8.530;2022-11-20T09:22:46;1.00;;;0.60;;
70388;SDS011;58659;49.050;8.530;2022-11-20T09:25:12;2.07;;;0.70;;
70388;SDS011;58659;49.050;8.530;2022-11-20T09:27:37;1.37;;;0.80;;
70388;SDS011;58659;49.050;8.530;2022-11-20T09:30:03;0.80;;;0.50;;
70388;SDS011;58659;49.050;8.530;2022-11-20T09:32:29;1.33;;;0.70;;
70388;SDS011;58659;49.050;8.530;2022-11-20T09:34:54;0.77;;;0.60;;
70388;SDS011;58659;49.050;8.530;2022-11-20T09:37:19;1.37;;;0.90;;
70388;SDS011;58659;49.050;8.530;2022-11-20T09:39:45;1.27;;;0.70;;
70388;SDS011;58659;49.050;8.530;2022-11-20T09:42:14;1.70;;;1.00;;
70388;SDS011;58659;49.050;8.530;2022-11-20T09:44:53;2.03;;;0.80;;
70388;SDS011;58659;49.050;8.530;2022-11-20T09:50:15;2.40;;;0.90;;
70388;SDS011;58659;49.050;8.530;2022-11-20T09:55:40;0.63;;;0.63;;
70388;SDS011;58659;49.050;8.530;2022-11-20T09:58:06;1.17;;;0.60;;
70388;SDS011;58659;49.050;8.530;2022-11-20T10:00:37;2.20;;;1.07;;
70388;SDS011;58659;49.050;8.530;2022-11-20T10:03:06;1.67;;;1.13;;
70388;SDS011;58659;49.050;8.530;2022-11-20T10:05:43;2.37;;;1.03;;
70388;SDS011;58659;49.050;8.530;2022-11-20T10:08:14;5.67;;;1.23;;
70388;SDS011;58659;49.050;8.530;2022-11-20T10:16:25;2.33;;;1.23;;
70388;SDS011;58659;49.050;8.530;2022-11-20T10:29:32;1.00;;;0.70;;
70388;SDS011;58659;49.050;8.530;2022-11-20T10:32:02;2.10;;;0.70;;
70388;SDS011;58659;49.050;8.530;2022-11-20T10:34:54;0.60;;;0.60;;
70388;SDS011;58659;49.050;8.530;2022-11-20T10:37:23;1.03;;;0.63;;
70388;SDS011;58659;49.050;8.530;2022-11-20T10:39:52;0.80;;;0.50;;
70388;SDS011;58659;49.050;8.530;2022-11-20T10:47:48;2.50;;;0.83;;
70388;SDS011;58659;49.050;8.530;2022-11-20T10:50:15;2.07;;;0.67;;
70388;SDS011;58659;49.050;8.530;2022-11-20T10:55:58;2.37;;;1.33;;
70388;SDS011;58659;49.050;8.530;2022-11-20T10:58:42;2.13;;;0.60;;
70388;SDS011;58659;49.050;8.530;2022-11-20T11:01:29;2.17;;;0.90;;
70388;SDS011;58659;49.050;8.530;2022-11-20T11:03:55;1.97;;;1.00;;
70388;SDS011;58659;49.050;8.530;2022-11-20T11:06:34;1.10;;;0.80;;
70388;SDS011;58659;49.050;8.530;2022-11-20T11:09:04;1.10;;;0.83;;
70388;SDS011;58659;49.050;8.530;2022-11-20T11:11:37;0.70;;;0.50;;
70388;SDS011;58659;49.050;8.530;2022-11-20T11:14:12;1.83;;;0.90;;
70388;SDS011;58659;49.050;8.530;2022-11-20T11:16:55;2.80;;;1.30;;
70388;SDS011;58659;49.050;8.530;2022-11-20T11:19:22;1.00;;;0.90;;
70388;SDS011;58659;49.050;8.530;2022-11-20T11:21:52;0.63;;;0.30;;
70388;SDS011;58659;49.050;8.530;2022-11-20T11:24:21;1.40;;;1.30;;
70388;SDS011;58659;49.050;8.530;2022-11-20T11:27:01;0.90;;;0.80;;
70388;SDS011;58659;49.050;8.530;2022-11-20T11:29:30;3.77;;;1.17;;
70388;SDS011;58659;49.050;8.530;2022-11-20T11:32:06;1.47;;;0.90;;
70388;SDS011;58659;49.050;8.530;2022-11-20T11:34:33;1.00;;;0.90;;
70388;SDS011;58659;49.050;8.530;2022-11-20T11:36:59;0.97;;;0.80;;
70388;SDS011;58659;49.050;8.530;2022-11-20T11:39:27;0.43;;;0.40;;
70388;SDS011;58659;49.050;8.530;2022-11-20T11:41:54;0.67;;;0.60;;
70388;SDS011;58659;49.050;8.530;2022-11-20T11:47:53;1.40;;;0.30;;
70388;SDS011;58659;49.050;8.530;2022-11-20T11:52:42;0.67;;;0.50;;
70388;SDS011;58659;49.050;8.530;2022-11-20T12:00:27;4.53;;;1.10;;
70388;SDS011;58659;49.050;8.530;2022-11-20T12:05:50;0.40;;;0.30;;
70388;SDS011;58659;49.050;8.530;2022-11-20T12:08:26;2.40;;;0.60;;
70388;SDS011;58659;49.050;8.530;2022-11-20T12:16:26;0.20;;;0.20;;
70388;SDS011;58659;49.050;8.530;2022-11-20T12:18:52;0.30;;;0.20;;
70388;SDS011;58659;49.050;8.530;2022-11-20T12:22:01;0.83;;;0.23;;
70388;SDS011;58659;49.050;8.530;2022-11-20T12:40:32;1.00;;;0.47;;
70388;SDS011;58659;49.050;8.530;2022-11-20T12:43:11;2.07;;;0.60;;
70388;SDS011;58659;49.050;8.530;2022-11-20T12:48:51;0.37;;;0.30;;
70388;SDS011;58659;49.050;8.530;2022-11-20T12:51:34;2.53;;;0.63;;
70388;SDS011;58659;49.050;8.530;2022-11-20T13:07:45;2.63;;;0.97;;
70388;SDS011;58659;49.050;8.530;2022-11-20T13:10:20;1.23;;;0.63;;
70388;SDS011;58659;49.050;8.530;2022-11-20T13:12:58;0.20;;;0.20;;
70388;SDS011;58659;49.050;8.530;2022-11-20T13:18:20;0.20;;;0.20;;
70388;SDS011;58659;49.050;8.530;2022-11-20T13:20:46;0.67;;;0.20;;
70388;SDS011;58659;49.050;8.530;2022-11-20T13:23:22;0.27;;;0.20;;
70388;SDS011;58659;49.050;8.530;2022-11-20T13:26:03;1.60;;;0.27;;
70388;SDS011;58659;49.050;8.530;2022-11-20T13:28:39;4.40;;;0.37;;
70388;SDS011;58659;49.050;8.530;2022-11-20T13:31:49;0.30;;;0.30;;
70388;SDS011;58659;49.050;8.530;2022-11-20T13:34:01;0.43;;;0.17;;
70388;SDS011;58659;49.050;8.530;2022-11-20T13:36:29;0.30;;;0.30;;
70388;SDS011;58659;49.050;8.530;2022-11-20T13:38:56;0.10;;;0.10;;
70388;SDS011;58659;49.050;8.530;2022-11-20T13:43:58;0.37;;;0.37;;
70388;SDS011;58659;49.050;8.530;2022-11-20T13:52:04;3.90;;;0.60;;
70388;SDS011;58659;49.050;8.530;2022-11-20T14:02:57;1.03;;;0.20;;
70388;SDS011;58659;49.050;8.530;2022-11-20T14:05:30;0.33;;;0.30;;
70388;SDS011;58659;49.050;8.530;2022-11-20T14:07:59;0.30;;;0.30;;
70388;SDS011;58659;49.050;8.530;2022-11-20T14:10:26;0.10;;;0.10;;
70388;SDS011;58659;49.050;8.530;2022-11-20T14:12:53;0.47;;;0.47;;
70388;SDS011;58659;49.050;8.530;2022-11-20T14:15:29;0.77;;;0.70;;
70388;SDS011;58659;49.050;8.530;2022-11-20T14:17:56;0.20;;;0.20;;
70388;SDS011;58659;49.050;8.530;2022-11-20T14:20:23;0.53;;;0.43;;
70388;SDS011;58659;49.050;8.530;2022-11-20T14:22:52;0.40;;;0.30;;
70388;SDS011;58659;49.050;8.530;2022-11-20T14:27:50;1.67;;;0.40;;
70388;SDS011;58659;49.050;8.530;2022-11-20T14:30:27;0.43;;;0.20;;
70388;SDS011;58659;49.050;8.530;2022-11-20T14:32:59;0.97;;;0.30;;
70388;SDS011;58659;49.050;8.530;2022-11-20T14:35:27;0.20;;;0.20;;
70388;SDS011;58659;49.050;8.530;2022-11-20T14:37:55;0.20;;;0.20;;
70388;SDS011;58659;49.050;8.530;2022-11-20T14:42:48;0.13;;;0.13;;
70388;SDS011;58659;49.050;8.530;2022-11-20T14:45:14;0.20;;;0.20;;
70388;SDS011;58659;49.050;8.530;2022-11-20T14:47:39;1.77;;;0.27;;
70388;SDS011;58659;49.050;8.530;2022-11-20T14:50:12;1.07;;;0.20;;
70388;SDS011;58659;49.050;8.530;2022-11-20T14:52:52;0.20;;;0.20;;
70388;SDS011;58659;49.050;8.530;2022-11-20T14:55:31;0.30;;;0.30;;
70388;SDS011;58659;49.050;8.530;2022-11-20T14:58:20;0.10;;;0.10;;
70388;SDS011;58659;49.050;8.530;2022-11-20T15:00:54;0.67;;;0.40;;
70388;SDS011;58659;49.050;8.530;2022-11-20T15:03:31;0.37;;;0.30;;
70388;SDS011;58659;49.050;8.530;2022-11-20T15:05:58;0.27;;;0.27;;
70388;SDS011;58659;49.050;8.530;2022-11-20T15:08:23;2.33;;;0.43;;
70388;SDS011;58659;49.050;8.530;2022-11-20T15:10:49;0.43;;;0.30;;
70388;SDS011;58659;49.050;8.530;2022-11-20T15:13:24;0.43;;;0.33;;
70388;SDS011;58659;49.050;8.530;2022-11-20T15:15:53;1.03;;;0.30;;
70388;SDS011;58659;49.050;8.530;2022-11-20T15:18:27;1.03;;;0.40;;
70388;SDS011;58659;49.050;8.530;2022-11-20T15:20:53;2.37;;;0.30;;
70388;SDS011;58659;49.050;8.530;2022-11-20T15:23:20;0.20;;;0.20;;
70388;SDS011;58659;49.050;8.530;2022-11-20T15:25:46;0.50;;;0.30;;
70388;SDS011;58659;49.050;8.530;2022-11-20T15:28:22;0.20;;;0.20;;
70388;SDS011;58659;49.050;8.530;2022-11-20T15:30:50;2.73;;;0.30;;
70388;SDS011;58659;49.050;8.530;2022-11-20T15:33:16;0.23;;;0.23;;
70388;SDS011;58659;49.050;8.530;2022-11-20T15:35:43;0.27;;;0.23;;
70388;SDS011;58659;49.050;8.530;2022-11-20T15:38:09;0.20;;;0.20;;
70388;SDS011;58659;49.050;8.530;2022-11-20T15:40:35;0.50;;;0.30;;
70388;SDS011;58659;49.050;8.530;2022-11-20T15:43:00;4.30;;;0.87;;
70388;SDS011;58659;49.050;8.530;2022-11-20T15:45:29;0.33;;;0.30;;
70388;SDS011;58659;49.050;8.530;2022-11-20T15:47:58;0.27;;;0.27;;
70388;SDS011;58659;49.050;8.530;2022-11-20T15:50:25;0.63;;;0.50;;
70388;SDS011;58659;49.050;8.530;2022-11-20T15:52:58;0.40;;;0.40;;
70388;SDS011;58659;49.050;8.530;2022-11-20T15:55:23;0.30;;;0.30;;
70388;SDS011;58659;49.050;8.530;2022-11-20T15:57:49;1.03;;;0.57;;
70388;SDS011;58659;49.050;8.530;2022-11-20T16:00:14;4.63;;;0.67;;
70388;SDS011;58659;49.050;8.530;2022-11-20T16:02:40;0.20;;;0.20;;
70388;SDS011;58659;49.050;8.530;2022-11-20T16:05:09;0.20;;;0.20;;
70388;SDS011;58659;49.050;8.530;2022-11-20T16:07:36;2.63;;;0.47;;
70388;SDS011;58659;49.050;8.530;2022-11-20T16:10:01;0.63;;;0.50;;
70388;SDS011;58659;49.050;8.530;2022-11-20T16:12:28;0.23;;;0.10;;
70388;SDS011;58659;49.050;8.530;2022-11-20T16:15:11;0.73;;;0.53;;
70388;SDS011;58659;49.050;8.530;2022-11-20T16:17:55;0.53;;;0.40;;
70388;SDS011;58659;49.050;8.530;2022-11-20T16:20:21;1.30;;;0.23;;
70388;SDS011;58659;49.050;8.530;2022-11-20T16:22:46;0.90;;;0.27;;
70388;SDS011;58659;49.050;8.530;2022-11-20T16:25:11;0.20;;;0.20;;
70388;SDS011;58659;49.050;8.530;2022-11-20T16:27:37;0.33;;;0.30;;
70388;SDS011;58659;49.050;8.530;2022-11-20T16:30:02;1.13;;;0.70;;
70388;SDS011;58659;49.050;8.530;2022-11-20T16:32:28;0.40;;;0.40;;
70388;SDS011;58659;49.050;8.530;2022-11-20T16:34:53;0.70;;;0.47;;
70388;SDS011;58659;49.050;8.530;2022-11-20T16:37:18;0.40;;;0.40;;
70388;SDS011;58659;49.050;8.530;2022-11-20T16:39:44;0.20;;;0.20;;
70388;SDS011;58659;49.050;8.530;2022-11-20T16:42:09;0.23;;;0.23;;
70388;SDS011;58659;49.050;8.530;2022-11-20T16:44:34;0.83;;;0.60;;